Погода Резервана неделю

Люблинское воеводство, Польша

24 - 30 мая
  • 24мая
    Сегодня
    +13°
    +27°
    Практически безоблачно
    ВремяПогодаТемператураВлажностьДавлениеВетер, м/сВероятность осадков
    02:00Ясно и безоблачно+13°C96 %745 мм2.2 м/с2 %
    05:00Облачно с прояснениями+12°C85 %745 мм1.8 м/с2 %
    08:00Практически безоблачно+18°C88 %746 мм0.9 м/с2 %
    11:00Ясно и безоблачно+24°C51 %747 мм2.4 м/с2 %
    14:00Практически безоблачно+27°C33 %746 мм4.7 м/с2 %
    17:00Ясно и безоблачно+26°C31 %746 мм4.9 м/с1 %
    20:00Ясно и безоблачно+21°C53 %746 мм2.0 м/с2 %
    23:00Ясно и безоблачно+17°C56 %746 мм4.1 м/с2 %
  • 25мая
    Суббота
    +12°
    +26°
    Небольшая облачность
    ВремяПогодаТемператураВлажностьДавлениеВетер, м/сВероятность осадков
    02:00Ясно и безоблачно+15°C69 %747 мм3.1 м/с2 %
    05:00Небольшая облачность+14°C76 %746 мм2.6 м/с2 %
    08:00Облачно с прояснениями+19°C62 %747 мм2.4 м/с2 %
    11:00Облачно с прояснениями+24°C50 %747 мм1.0 м/с2 %
    14:00Небольшая облачность+25°C45 %747 мм1.3 м/с47 %
    17:00Небольшая облачность+24°C57 %747 мм3.5 м/с42 %
    20:00Облачно с прояснениями+19°C72 %746 мм1.7 м/с2 %
    23:00Ясно и безоблачно+16°C80 %746 мм2.1 м/с2 %
  • 26мая
    Воскресенье
    +11°
    +27°
    Практически безоблачно
    ВремяПогодаТемператураВлажностьДавлениеВетер, м/сВероятность осадков
    02:00Небольшая облачность+14°C79 %746 мм2.4 м/с2 %
    05:00Ясно и безоблачно+12°C85 %746 мм2.1 м/с2 %
    08:00Практически безоблачно+19°C64 %747 мм1.5 м/с2 %
    11:00Облачно с прояснениями+25°C41 %747 мм3.1 м/с2 %
    14:00Практически безоблачно+26°C27 %747 мм3.8 м/с10 %
    17:00Небольшая облачность+25°C26 %746 мм3.6 м/с16 %
    20:00Практически безоблачно+20°C51 %746 мм2.0 м/с4 %
    23:00Небольшая облачность+14°C61 %747 мм2.2 м/с2 %
  • 27мая
    Понедельник
    +10°
    +26°
    Ясно и безоблачно
    ВремяПогодаТемператураВлажностьДавлениеВетер, м/сВероятность осадков
    02:00Небольшая облачность+14°C50 %747 мм2.5 м/с2 %
    05:00Ясно и безоблачно+12°C55 %747 мм2.7 м/с2 %
    08:00Ясно и безоблачно+19°C45 %748 мм2.7 м/с2 %
    11:00Ясно и безоблачно+24°C27 %748 мм3.7 м/с2 %
    14:00Ясно и безоблачно+26°C24 %747 мм3.9 м/с2 %
    17:00Ясно и безоблачно+25°C25 %746 мм3.5 м/с2 %
    20:00Практически безоблачно+21°C38 %746 мм2.9 м/с2 %
    23:00Ясно и безоблачно+16°C45 %746 мм2.9 м/с2 %
  • 28мая
    Вторник
    +11°
    +25°
    Небольшая облачность
    ВремяПогодаТемператураВлажностьДавлениеВетер, м/сВероятность осадков
    02:00Ясно и безоблачно+14°C45 %746 мм4.0 м/с2 %
    05:00Ясно и безоблачно+11°C61 %746 мм1.6 м/с2 %
    08:00Облачно с прояснениями+18°C48 %746 мм1.0 м/с2 %
    11:00Облачно с прояснениями+24°C32 %745 мм5.1 м/с2 %
    14:00Небольшая облачность+25°C31 %744 мм4.9 м/с2 %
    17:00Практически безоблачно+24°C35 %743 мм5.0 м/с6 %
    20:00Практически безоблачно+20°C45 %743 мм2.6 м/с2 %
    23:00Практически безоблачно+16°C56 %743 мм2.4 м/с2 %
Мы используем cookies
Соглашаюсь